createdAt,value
2022-12-01T00:01:39.623Z,12.57
2022-12-01T00:04:07.879Z,12.30
2022-12-01T00:06:37.675Z,11.90
2022-12-01T00:09:23.517Z,11.40
2022-12-01T00:11:52.114Z,11.47
2022-12-01T00:14:20.335Z,12.27
2022-12-01T00:16:50.524Z,12.93
2022-12-01T00:19:18.871Z,12.83
2022-12-01T00:21:47.687Z,13.13
2022-12-01T00:24:15.892Z,14.03
2022-12-01T00:26:44.456Z,12.93
2022-12-01T00:29:12.863Z,12.33
2022-12-01T00:31:41.676Z,11.83
2022-12-01T00:34:21.941Z,13.63
2022-12-01T00:36:50.681Z,14.30
2022-12-01T00:39:19.145Z,13.67
2022-12-01T00:41:47.733Z,12.37
2022-12-01T00:44:16.062Z,12.97
2022-12-01T00:46:44.562Z,11.93
2022-12-01T00:49:15.550Z,13.03
2022-12-01T00:51:44.134Z,13.03
2022-12-01T00:54:12.438Z,10.97
2022-12-01T00:56:41.069Z,12.73
2022-12-01T00:59:09.393Z,14.47
2022-12-01T01:01:37.986Z,13.33
2022-12-01T01:04:06.626Z,12.53
2022-12-01T01:06:36.594Z,14.03
2022-12-01T01:09:05.152Z,14.10
2022-12-01T01:11:33.900Z,14.07
2022-12-01T01:14:02.386Z,14.90
2022-12-01T01:16:31.359Z,14.60
2022-12-01T01:19:00.087Z,13.83
2022-12-01T01:21:29.159Z,15.50
2022-12-01T01:23:58.712Z,14.73
2022-12-01T01:26:29.109Z,15.13
2022-12-01T01:28:59.471Z,16.27
2022-12-01T01:31:30.523Z,14.57
2022-12-01T01:33:59.747Z,16.07
2022-12-01T01:36:28.778Z,16.07
2022-12-01T01:38:58.469Z,15.03
2022-12-01T01:41:27.549Z,15.70
2022-12-01T01:43:58.381Z,16.10
2022-12-01T01:46:28.560Z,15.80
2022-12-01T01:49:00.187Z,16.00
2022-12-01T01:51:33.656Z,16.50
2022-12-01T01:54:07.103Z,16.60
2022-12-01T01:56:37.349Z,16.23
2022-12-01T01:59:05.762Z,17.10
2022-12-01T02:01:34.496Z,17.07
2022-12-01T02:04:03.908Z,16.13
2022-12-01T02:06:32.734Z,14.27
2022-12-01T02:09:01.062Z,17.10
2022-12-01T02:12:00.850Z,16.03
2022-12-01T02:14:57.174Z,16.03
2022-12-01T02:17:40.241Z,15.27
2022-12-01T02:20:43.515Z,15.40
2022-12-01T02:23:34.550Z,16.20
2022-12-01T02:26:17.522Z,16.50
2022-12-01T02:29:04.294Z,15.20
2022-12-01T02:31:40.910Z,15.20
2022-12-01T02:34:15.942Z,15.33
2022-12-01T02:36:50.299Z,16.13
2022-12-01T02:39:22.874Z,14.27
2022-12-01T02:41:54.354Z,16.20
2022-12-01T02:44:28.603Z,14.57
2022-12-01T02:47:02.891Z,15.97
2022-12-01T02:49:36.063Z,18.37
2022-12-01T02:52:07.469Z,14.83
2022-12-01T02:54:37.487Z,16.40
2022-12-01T02:57:05.678Z,17.40
2022-12-01T02:59:34.289Z,15.40
2022-12-01T03:02:11.586Z,16.60
2022-12-01T03:04:56.285Z,15.37
2022-12-01T03:07:45.854Z,16.40
2022-12-01T03:10:24.076Z,16.10
2022-12-01T03:13:07.983Z,16.30
2022-12-01T03:15:46.339Z,16.00
2022-12-01T03:18:26.004Z,16.50
2022-12-01T03:21:00.445Z,16.33
2022-12-01T03:23:33.724Z,15.73
2022-12-01T03:26:07.050Z,17.13
2022-12-01T03:28:40.110Z,16.87
2022-12-01T03:31:13.146Z,16.20
2022-12-01T03:33:51.681Z,14.23
2022-12-01T03:36:25.998Z,18.10
2022-12-01T03:39:00.168Z,16.07
2022-12-01T03:41:35.405Z,17.57
2022-12-01T03:44:09.701Z,17.13
2022-12-01T03:46:46.802Z,16.53
2022-12-01T03:49:18.122Z,18.03
2022-12-01T03:51:55.576Z,16.63
2022-12-01T03:54:32.321Z,17.27
2022-12-01T03:57:06.772Z,14.97
2022-12-01T03:59:38.777Z,17.20
2022-12-01T04:02:07.918Z,16.37
2022-12-01T04:04:37.694Z,15.63
2022-12-01T04:07:06.281Z,16.07
2022-12-01T04:09:34.652Z,15.97
2022-12-01T04:12:20.963Z,15.17
2022-12-01T04:14:49.193Z,16.40
2022-12-01T04:17:17.956Z,17.20
2022-12-01T04:19:48.149Z,17.43
2022-12-01T04:22:16.955Z,25.03
2022-12-01T04:24:45.233Z,29.77
2022-12-01T04:27:14.116Z,29.77
2022-12-01T04:29:42.558Z,29.87
2022-12-01T04:32:11.321Z,30.50
2022-12-01T04:34:39.631Z,31.50
2022-12-01T04:37:12.103Z,28.07
2022-12-01T04:39:42.144Z,30.57
2022-12-01T04:42:11.298Z,32.03
2022-12-01T04:44:39.625Z,25.60
2022-12-01T04:47:08.257Z,24.27
2022-12-01T04:49:37.390Z,25.53
2022-12-01T04:52:06.282Z,24.07
2022-12-01T04:54:35.949Z,22.57
2022-12-01T04:57:04.777Z,23.10
2022-12-01T04:59:33.150Z,21.20
2022-12-01T05:02:02.761Z,20.97
2022-12-01T05:04:33.963Z,22.33
2022-12-01T05:07:02.539Z,22.43
2022-12-01T05:09:30.817Z,21.77
2022-12-01T05:12:00.791Z,21.83
2022-12-01T05:14:29.280Z,20.17
2022-12-01T05:16:58.300Z,19.17
2022-12-01T05:19:44.672Z,18.17
2022-12-01T05:22:13.191Z,18.90
2022-12-01T05:24:41.472Z,17.40
2022-12-01T05:27:11.280Z,16.37
2022-12-01T05:29:39.573Z,16.37
2022-12-01T05:32:08.077Z,18.20
2022-12-01T05:34:36.481Z,16.07
2022-12-01T05:37:05.787Z,15.47
2022-12-01T05:39:34.174Z,12.87
2022-12-01T05:42:02.764Z,14.27
2022-12-01T05:44:32.524Z,15.33
2022-12-01T05:47:01.126Z,17.13
2022-12-01T05:49:29.512Z,13.83
2022-12-01T05:51:58.598Z,15.20
2022-12-01T05:54:27.036Z,16.20
2022-12-01T05:56:55.564Z,15.17
2022-12-01T05:59:24.049Z,14.40
2022-12-01T06:01:54.172Z,15.27
2022-12-01T06:04:22.587Z,14.33
2022-12-01T06:06:51.202Z,13.40
2022-12-01T06:09:19.529Z,12.87
2022-12-01T06:11:52.266Z,14.23
2022-12-01T06:14:20.922Z,15.13
2022-12-01T06:16:49.527Z,13.13
2022-12-01T06:19:19.236Z,13.57
2022-12-01T06:21:47.810Z,13.57
2022-12-01T06:24:16.152Z,14.73
2022-12-01T06:26:44.765Z,14.07
2022-12-01T06:29:13.157Z,13.93
2022-12-01T06:31:41.890Z,14.30
2022-12-01T06:34:10.226Z,12.80
2022-12-01T06:36:40.149Z,13.30
2022-12-01T06:39:10.135Z,13.67
2022-12-01T06:41:38.869Z,14.73
2022-12-01T06:44:07.476Z,13.03
2022-12-01T06:46:36.154Z,13.13
2022-12-01T06:49:05.527Z,14.17
2022-12-01T06:51:34.761Z,13.43
2022-12-01T06:54:05.766Z,14.17
2022-12-01T06:56:34.660Z,15.10
2022-12-01T06:59:03.354Z,13.47
2022-12-01T07:01:32.584Z,13.33
2022-12-01T07:04:00.992Z,13.57
2022-12-01T07:06:31.119Z,12.37
2022-12-01T07:08:59.781Z,14.63
2022-12-01T07:11:32.223Z,13.37
2022-12-01T07:14:01.386Z,14.37
2022-12-01T07:16:31.035Z,12.17
2022-12-01T07:19:00.076Z,12.50
2022-12-01T07:21:29.092Z,13.83
2022-12-01T07:23:57.492Z,12.13
2022-12-01T07:26:26.131Z,12.87
2022-12-01T07:28:56.155Z,12.70
2022-12-01T07:31:25.474Z,13.47
2022-12-01T07:33:54.027Z,13.03
2022-12-01T07:36:22.967Z,12.80
2022-12-01T07:38:51.448Z,11.27
2022-12-01T07:41:20.526Z,11.77
2022-12-01T07:43:49.447Z,12.73
2022-12-01T07:46:23.596Z,13.60
2022-12-01T07:48:53.353Z,12.33
2022-12-01T07:51:23.936Z,12.57
2022-12-01T07:53:53.852Z,12.17
2022-12-01T07:56:23.584Z,12.80
2022-12-01T07:58:52.576Z,13.03
2022-12-01T08:01:25.387Z,13.80
2022-12-01T08:03:55.884Z,12.33
2022-12-01T08:06:26.058Z,13.20
2022-12-01T08:08:54.603Z,11.97
2022-12-01T08:11:25.745Z,12.73
2022-12-01T08:13:55.176Z,13.13
2022-12-01T08:16:26.449Z,12.07
2022-12-01T08:18:55.258Z,12.37
2022-12-01T08:21:25.223Z,12.13
2022-12-01T08:23:55.867Z,13.57
2022-12-01T08:26:26.396Z,12.90
2022-12-01T08:28:55.050Z,12.33
2022-12-01T08:31:27.072Z,13.60
2022-12-01T08:33:56.342Z,13.30
2022-12-01T08:36:25.516Z,14.17
2022-12-01T08:38:56.067Z,13.87
2022-12-01T08:41:26.071Z,13.60
2022-12-01T08:43:59.129Z,14.20
2022-12-01T08:46:33.160Z,13.23
2022-12-01T08:49:02.165Z,13.83
2022-12-01T08:51:30.920Z,14.03
2022-12-01T08:54:00.690Z,14.00
2022-12-01T08:56:32.450Z,12.40
2022-12-01T08:59:00.979Z,14.17
2022-12-01T09:01:31.316Z,13.63
2022-12-01T09:04:08.948Z,14.43
2022-12-01T09:06:42.296Z,15.00
2022-12-01T09:09:12.733Z,15.03
2022-12-01T09:11:43.799Z,11.87
2022-12-01T09:14:13.050Z,14.97
2022-12-01T09:16:44.456Z,13.30
2022-12-01T09:19:13.558Z,13.40
2022-12-01T09:21:43.568Z,12.67
2022-12-01T09:24:13.739Z,12.53
2022-12-01T09:26:43.046Z,12.93
2022-12-01T09:29:14.123Z,12.20
2022-12-01T09:31:45.208Z,12.30
2022-12-01T09:34:15.344Z,11.40
2022-12-01T09:36:44.551Z,10.87
2022-12-01T09:39:14.848Z,12.00
2022-12-01T09:41:47.580Z,12.10
2022-12-01T09:44:22.894Z,10.93
2022-12-01T09:46:59.880Z,13.37
2022-12-01T09:49:42.918Z,11.67
2022-12-01T09:52:15.099Z,11.80
2022-12-01T09:54:43.929Z,11.97
2022-12-01T09:57:24.537Z,10.83
2022-12-01T09:59:54.193Z,10.47
2022-12-01T10:02:34.850Z,11.03
2022-12-01T10:05:06.729Z,12.37
2022-12-01T10:07:41.227Z,10.27
2022-12-01T10:10:16.576Z,10.73
2022-12-01T10:12:47.851Z,11.67
2022-12-01T10:15:35.210Z,11.43
2022-12-01T10:18:21.600Z,10.90
2022-12-01T10:20:53.965Z,12.13
2022-12-01T10:23:39.569Z,13.30
2022-12-01T10:26:14.778Z,11.57
2022-12-01T10:28:54.025Z,10.87
2022-12-01T10:31:27.476Z,11.60
2022-12-01T10:34:02.534Z,10.10
2022-12-01T10:36:32.986Z,12.43
2022-12-01T10:39:02.602Z,10.00
2022-12-01T10:41:33.753Z,10.30
2022-12-01T10:44:05.993Z,11.60
2022-12-01T10:46:41.927Z,9.43
2022-12-01T10:49:14.396Z,10.10
2022-12-01T10:51:51.689Z,10.13
2022-12-01T10:54:21.473Z,10.27
2022-12-01T10:56:52.294Z,9.53
2022-12-01T10:59:27.941Z,8.60
2022-12-01T11:01:58.836Z,9.27
2022-12-01T11:04:37.591Z,9.37
2022-12-01T11:07:06.118Z,9.87
2022-12-01T11:09:34.988Z,8.77
2022-12-01T11:12:05.206Z,9.20
2022-12-01T11:14:46.040Z,9.33
2022-12-01T11:17:30.699Z,10.43
2022-12-01T11:20:17.888Z,9.60
2022-12-01T11:22:46.327Z,8.53
2022-12-01T11:25:21.770Z,9.40
2022-12-01T11:27:54.409Z,8.50
2022-12-01T11:30:26.093Z,9.63
2022-12-01T11:32:56.413Z,9.10
2022-12-01T11:35:29.200Z,7.47
2022-12-01T11:38:28.170Z,8.20
2022-12-01T11:40:50.406Z,9.10
2022-12-01T11:43:27.601Z,7.50
2022-12-01T11:45:58.601Z,8.47
2022-12-01T11:48:29.120Z,8.63
2022-12-01T11:51:28.392Z,8.40
2022-12-01T11:54:13.933Z,8.20
2022-12-01T11:56:44.110Z,9.03
2022-12-01T11:59:16.714Z,8.13
2022-12-01T12:02:02.565Z,8.73
2022-12-01T12:04:43.551Z,8.63
2022-12-01T12:07:22.262Z,9.10
2022-12-01T12:10:10.024Z,8.33
2022-12-01T12:12:54.012Z,9.30
2022-12-01T12:15:35.085Z,8.30
2022-12-01T12:18:22.192Z,9.03
2022-12-01T12:21:05.170Z,8.30
2022-12-01T12:24:01.580Z,7.77
2022-12-01T12:26:34.038Z,8.03
2022-12-01T12:29:34.349Z,7.67
2022-12-01T12:32:16.723Z,8.00
2022-12-01T12:34:53.589Z,7.53
2022-12-01T12:37:27.514Z,8.20
2022-12-01T12:40:25.228Z,7.73
2022-12-01T12:43:12.191Z,8.07
2022-12-01T12:45:54.277Z,8.80
2022-12-01T12:48:36.024Z,8.90
2022-12-01T12:51:14.348Z,8.43
2022-12-01T12:53:49.230Z,8.87
2022-12-01T12:56:22.262Z,8.80
2022-12-01T12:58:58.223Z,9.20
2022-12-01T13:01:30.305Z,8.07
2022-12-01T13:04:02.638Z,9.10
2022-12-01T13:06:35.548Z,9.70
2022-12-01T13:09:09.353Z,9.60
2022-12-01T13:11:46.178Z,9.97
2022-12-01T13:14:22.720Z,8.43
2022-12-01T13:16:54.923Z,8.80
2022-12-01T13:19:28.269Z,10.03
2022-12-01T13:21:57.555Z,9.67
2022-12-01T13:24:29.728Z,9.43
2022-12-01T13:27:04.302Z,10.17
2022-12-01T13:29:43.724Z,9.27
2022-12-01T13:32:29.249Z,9.90
2022-12-01T13:34:59.066Z,8.67
2022-12-01T13:37:29.354Z,10.03
2022-12-01T13:40:09.259Z,8.73
2022-12-01T13:42:40.100Z,9.70
2022-12-01T13:45:19.609Z,8.90
2022-12-01T13:47:54.393Z,9.50
2022-12-01T13:51:02.620Z,9.27
2022-12-01T13:53:35.781Z,9.30
2022-12-01T13:56:39.537Z,9.23
2022-12-01T14:00:03.182Z,9.77
2022-12-01T14:02:35.105Z,9.43
2022-12-01T14:05:44.455Z,9.13
2022-12-01T14:08:22.595Z,9.43
2022-12-01T14:10:59.042Z,8.33
2022-12-01T14:13:29.380Z,7.90
2022-12-01T14:15:59.763Z,9.93
2022-12-01T14:18:34.843Z,9.90
2022-12-01T14:21:06.879Z,9.33
2022-12-01T14:23:37.528Z,9.27
2022-12-01T14:26:19.282Z,8.97
2022-12-01T14:29:24.680Z,8.67
2022-12-01T14:32:26.594Z,9.60
2022-12-01T14:35:07.374Z,9.77
2022-12-01T14:37:47.056Z,9.57
2022-12-01T14:40:22.484Z,11.97
2022-12-01T14:43:13.970Z,17.70
2022-12-01T14:45:50.988Z,16.33
2022-12-01T14:48:25.066Z,27.93
2022-12-01T14:51:03.104Z,14.60
2022-12-01T14:53:35.039Z,15.03
2022-12-01T14:56:11.142Z,16.20
2022-12-01T14:58:39.816Z,21.33
2022-12-01T15:01:10.508Z,15.90
2022-12-01T15:03:42.657Z,14.97
2022-12-01T15:06:18.236Z,13.70
2022-12-01T15:09:04.188Z,13.57
2022-12-01T15:11:35.976Z,16.90
2022-12-01T15:14:04.563Z,13.37
2022-12-01T15:16:41.331Z,13.60
2022-12-01T15:19:24.784Z,11.87
2022-12-01T15:21:54.779Z,12.00
2022-12-01T15:24:25.579Z,11.10
2022-12-01T15:27:02.102Z,10.73
2022-12-01T15:29:33.964Z,11.47
2022-12-01T15:32:03.806Z,9.87
2022-12-01T15:34:36.150Z,11.73
2022-12-01T15:37:09.856Z,9.13
2022-12-01T15:39:44.123Z,10.67
2022-12-01T15:42:23.486Z,10.93
2022-12-01T15:45:00.567Z,9.67
2022-12-01T15:47:35.794Z,10.10
2022-12-01T15:50:06.054Z,9.97
2022-12-01T15:52:45.730Z,9.67
2022-12-01T15:55:24.408Z,9.13
2022-12-01T15:57:52.781Z,10.27
2022-12-01T16:00:22.393Z,8.10
2022-12-01T16:02:53.944Z,10.03
2022-12-01T16:05:27.044Z,9.47
2022-12-01T16:08:13.625Z,10.17
2022-12-01T16:10:42.540Z,10.00
2022-12-01T16:13:47.289Z,8.70
2022-12-01T16:16:37.077Z,9.83
2022-12-01T16:19:21.623Z,9.67
2022-12-01T16:21:52.332Z,10.13
2022-12-01T16:24:24.939Z,9.43
2022-12-01T16:26:56.472Z,10.57
2022-12-01T16:29:26.795Z,10.13
2022-12-01T16:32:20.408Z,10.80
2022-12-01T16:34:47.293Z,12.17
2022-12-01T16:37:16.715Z,12.00
2022-12-01T16:39:46.660Z,11.23
2022-12-01T16:42:17.093Z,12.17
2022-12-01T16:44:46.686Z,10.07
2022-12-01T16:47:18.142Z,10.37
2022-12-01T16:49:46.465Z,9.83
2022-12-01T16:52:43.010Z,10.53
2022-12-01T16:55:06.290Z,11.47
2022-12-01T16:57:35.023Z,13.17
2022-12-01T17:00:04.135Z,13.17
2022-12-01T17:02:32.919Z,13.17
2022-12-01T17:05:01.321Z,14.87
2022-12-01T17:07:30.010Z,12.97
2022-12-01T17:09:58.392Z,15.83
2022-12-01T17:12:28.558Z,18.13
2022-12-01T17:14:56.948Z,15.73
2022-12-01T17:17:25.491Z,17.67
2022-12-01T17:19:53.960Z,14.87
2022-12-01T17:22:22.891Z,15.07
2022-12-01T17:24:51.462Z,16.57
2022-12-01T17:27:20.671Z,16.83
2022-12-01T17:29:50.378Z,15.03
2022-12-01T17:32:19.015Z,17.07
2022-12-01T17:34:47.632Z,15.47
2022-12-01T17:37:20.935Z,15.53
2022-12-01T17:39:50.253Z,13.97
2022-12-01T17:42:19.015Z,13.70
2022-12-01T17:44:47.601Z,12.73
2022-12-01T17:47:17.648Z,12.93
2022-12-01T17:49:45.889Z,12.83
2022-12-01T17:52:15.680Z,14.07
2022-12-01T17:54:43.987Z,12.13
2022-12-01T17:57:12.951Z,13.20
2022-12-01T17:59:41.284Z,12.07
2022-12-01T18:02:13.863Z,13.00
2022-12-01T18:04:44.048Z,11.33
2022-12-01T18:07:12.586Z,12.33
2022-12-01T18:09:41.300Z,13.43
2022-12-01T18:12:09.839Z,12.67
2022-12-01T18:14:38.349Z,12.80
2022-12-01T18:17:07.418Z,13.43
2022-12-01T18:19:35.831Z,13.30
2022-12-01T18:22:05.712Z,13.10
2022-12-01T18:24:33.957Z,13.37
2022-12-01T18:27:02.548Z,14.70
2022-12-01T18:29:30.836Z,12.40
2022-12-01T18:32:01.462Z,11.17
2022-12-01T18:34:30.462Z,11.53
2022-12-01T18:36:59.092Z,12.63
2022-12-01T18:39:28.742Z,12.47
2022-12-01T18:41:57.332Z,11.07
2022-12-01T18:44:26.117Z,11.13
2022-12-01T18:46:54.928Z,10.20
2022-12-01T18:49:23.335Z,12.70
2022-12-01T18:51:52.014Z,12.07
2022-12-01T18:54:20.311Z,11.40
2022-12-01T18:56:52.924Z,11.20
2022-12-01T18:59:21.316Z,9.63
2022-12-01T19:01:49.826Z,11.23
2022-12-01T19:04:18.278Z,10.77
2022-12-01T19:06:47.890Z,11.40
2022-12-01T19:09:17.465Z,11.03
2022-12-01T19:11:46.133Z,9.93
2022-12-01T19:14:17.798Z,11.20
2022-12-01T19:16:47.200Z,10.50
2022-12-01T19:19:15.782Z,9.97
2022-12-01T19:21:45.210Z,9.67
2022-12-01T19:24:14.052Z,11.07
2022-12-01T19:26:42.982Z,10.67
2022-12-01T19:29:11.256Z,10.13
2022-12-01T19:31:41.473Z,9.30
2022-12-01T19:34:09.717Z,10.97
2022-12-01T19:36:38.427Z,9.50
2022-12-01T19:39:07.856Z,10.00
2022-12-01T19:41:36.659Z,10.07
2022-12-01T19:44:05.012Z,10.03
2022-12-01T19:46:34.320Z,10.77
2022-12-01T19:49:05.006Z,9.83
2022-12-01T19:51:36.153Z,10.43
2022-12-01T19:54:05.846Z,9.90
2022-12-01T19:56:35.355Z,11.30
2022-12-01T19:59:04.973Z,10.03
2022-12-01T20:01:33.826Z,10.80
2022-12-01T20:04:03.684Z,10.87
2022-12-01T20:06:33.851Z,10.30
2022-12-01T20:09:05.476Z,9.93
2022-12-01T20:11:35.401Z,11.37
2022-12-01T20:14:05.725Z,11.10
2022-12-01T20:16:34.544Z,10.00
2022-12-01T20:19:06.056Z,10.40
2022-12-01T20:21:36.495Z,12.17
2022-12-01T20:24:07.468Z,10.17
2022-12-01T20:26:38.579Z,9.80
2022-12-01T20:29:09.083Z,9.70
2022-12-01T20:31:38.811Z,10.73
2022-12-01T20:34:11.049Z,10.67
2022-12-01T20:36:40.606Z,10.80
2022-12-01T20:39:10.100Z,11.43
2022-12-01T20:41:40.302Z,11.23
2022-12-01T20:44:09.324Z,10.63
2022-12-01T20:46:40.945Z,9.97
2022-12-01T20:49:10.965Z,9.97
2022-12-01T20:51:39.926Z,10.30
2022-12-01T20:54:29.114Z,9.67
2022-12-01T20:56:58.458Z,10.17
2022-12-01T20:59:27.138Z,9.20
2022-12-01T21:01:56.292Z,10.43
2022-12-01T21:04:25.996Z,9.63
2022-12-01T21:06:57.020Z,10.73
2022-12-01T21:09:25.466Z,9.83
2022-12-01T21:12:11.618Z,10.53
2022-12-01T21:14:44.161Z,10.43
2022-12-01T21:17:26.501Z,9.73
2022-12-01T21:20:01.573Z,9.50
2022-12-01T21:22:31.391Z,9.93
2022-12-01T21:25:07.197Z,10.87
2022-12-01T21:27:35.919Z,10.87
2022-12-01T21:30:15.116Z,10.07
2022-12-01T21:32:44.619Z,9.43
2022-12-01T21:35:19.185Z,10.17
2022-12-01T21:37:48.616Z,12.30
2022-12-01T21:40:22.574Z,11.27
2022-12-01T21:42:51.872Z,23.03
2022-12-01T21:45:25.982Z,18.43
2022-12-01T21:47:58.326Z,18.70
2022-12-01T21:50:28.383Z,20.40
2022-12-01T21:52:57.153Z,19.90
2022-12-01T21:55:35.891Z,17.87
2022-12-01T21:58:28.093Z,16.03
2022-12-01T22:00:58.367Z,15.83
2022-12-01T22:03:40.690Z,16.23
2022-12-01T22:06:29.897Z,15.27
2022-12-01T22:09:02.347Z,14.97
2022-12-01T22:11:31.996Z,14.07
2022-12-01T22:14:11.970Z,13.90
2022-12-01T22:16:43.298Z,13.60
2022-12-01T22:19:25.964Z,13.87
2022-12-01T22:22:00.841Z,12.73
2022-12-01T22:24:35.461Z,13.17
2022-12-01T22:27:28.135Z,13.27
2022-12-01T22:30:02.502Z,12.83
2022-12-01T22:32:39.644Z,11.33
2022-12-01T22:35:23.779Z,11.37
2022-12-01T22:37:54.668Z,11.20
2022-12-01T22:40:35.685Z,11.67
2022-12-01T22:43:31.094Z,11.47
2022-12-01T22:46:18.214Z,12.37
2022-12-01T22:48:48.465Z,13.30
2022-12-01T22:51:30.899Z,12.07
2022-12-01T22:54:08.296Z,10.97
2022-12-01T22:56:40.666Z,12.87
2022-12-01T22:59:16.180Z,12.40
2022-12-01T23:01:50.088Z,13.03
2022-12-01T23:04:26.430Z,13.83
2022-12-01T23:07:04.574Z,11.90
2022-12-01T23:09:37.695Z,15.40
2022-12-01T23:12:25.293Z,15.83
2022-12-01T23:14:55.711Z,17.43
2022-12-01T23:17:26.865Z,17.77
2022-12-01T23:20:06.461Z,15.70
2022-12-01T23:22:35.049Z,15.00
2022-12-01T23:25:14.132Z,15.17
2022-12-01T23:27:43.512Z,12.27
2022-12-01T23:30:13.427Z,11.60
2022-12-01T23:32:42.449Z,12.10
2022-12-01T23:35:16.051Z,12.37
2022-12-01T23:37:47.944Z,12.73
2022-12-01T23:40:21.997Z,12.93
2022-12-01T23:42:51.085Z,11.47
2022-12-01T23:45:22.834Z,10.40
2022-12-01T23:47:52.519Z,11.60
2022-12-01T23:50:24.489Z,10.47
2022-12-01T23:52:53.601Z,10.83
2022-12-01T23:55:26.654Z,10.30
2022-12-01T23:57:56.050Z,11.40
